createdAt,value
2023-03-13T00:00:23.656Z,50.908115
2023-03-13T00:01:23.661Z,50.908142
2023-03-13T00:02:23.677Z,50.908253
2023-03-13T00:03:23.656Z,50.908218
2023-03-13T00:04:23.633Z,50.908176
2023-03-13T00:05:23.633Z,50.908127
2023-03-13T00:06:23.603Z,50.908058
2023-03-13T00:07:23.591Z,50.908058
2023-03-13T00:08:23.613Z,50.908108
2023-03-13T00:09:23.581Z,50.908085
2023-03-13T00:10:23.565Z,50.908184
2023-03-13T00:11:23.559Z,50.908073
2023-03-13T00:12:23.548Z,50.907921
2023-03-13T00:13:23.567Z,50.907772
2023-03-13T00:14:23.541Z,50.907719
2023-03-13T00:15:23.530Z,50.907799
2023-03-13T00:16:23.532Z,50.907776
2023-03-13T00:17:23.514Z,50.907764
2023-03-13T00:18:23.539Z,50.907646
2023-03-13T00:19:23.501Z,50.907894
2023-03-13T00:20:23.498Z,50.907894
2023-03-13T00:21:23.490Z,50.907894
2023-03-13T00:22:23.476Z,50.907894
2023-03-13T00:23:23.493Z,50.907894
2023-03-13T00:24:23.458Z,50.907894
2023-03-13T00:25:23.457Z,50.907894
2023-03-13T00:26:23.467Z,50.908077
2023-03-13T00:27:23.438Z,50.908070
2023-03-13T00:28:23.456Z,50.908070
2023-03-13T00:29:23.429Z,50.908070
2023-03-13T00:30:23.423Z,50.908070
2023-03-13T00:31:23.513Z,50.908070
2023-03-13T00:32:23.447Z,50.908070
2023-03-13T00:33:23.420Z,50.908070
2023-03-13T00:34:23.382Z,50.908070
2023-03-13T00:35:23.433Z,50.908066
2023-03-13T00:36:23.374Z,50.908127
2023-03-13T00:37:23.361Z,50.908081
2023-03-13T00:38:23.377Z,50.908142
2023-03-13T00:39:23.342Z,50.908112
2023-03-13T00:40:23.334Z,50.908081
2023-03-13T00:41:23.326Z,50.908073
2023-03-13T00:42:23.321Z,50.908096
2023-03-13T00:43:23.338Z,50.908131
2023-03-13T00:44:23.310Z,50.908077
2023-03-13T00:45:23.299Z,50.908005
2023-03-13T00:46:23.354Z,50.908085
2023-03-13T00:47:23.282Z,50.908138
2023-03-13T00:48:23.305Z,50.908127
2023-03-13T00:49:23.283Z,50.908184
2023-03-13T00:50:23.263Z,50.908169
2023-03-13T00:51:23.252Z,50.908176
2023-03-13T00:52:23.245Z,50.908134
2023-03-13T00:53:23.258Z,50.908184
2023-03-13T00:54:23.234Z,50.908218
2023-03-13T00:55:23.240Z,50.908131
2023-03-13T00:56:23.239Z,50.908031
2023-03-13T00:57:23.213Z,50.908104
2023-03-13T00:58:23.222Z,50.908131
2023-03-13T00:59:23.194Z,50.908150
2023-03-13T01:00:23.185Z,50.908066
2023-03-13T01:01:23.181Z,50.908085
2023-03-13T01:02:23.329Z,50.907959
2023-03-13T01:03:23.287Z,50.908028
2023-03-13T01:04:23.157Z,50.908081
2023-03-13T01:05:23.150Z,50.908161
2023-03-13T01:06:23.162Z,50.907997
2023-03-13T01:07:23.137Z,50.908096
2023-03-13T01:08:23.132Z,50.908169
2023-03-13T01:09:23.145Z,50.908344
2023-03-13T01:10:23.115Z,50.908249
2023-03-13T01:11:23.111Z,50.908234
2023-03-13T01:12:23.104Z,50.908123
2023-03-13T01:13:23.093Z,50.908108
2023-03-13T01:14:23.109Z,50.908199
2023-03-13T01:15:23.083Z,50.908184
2023-03-13T01:16:23.145Z,50.908085
2023-03-13T01:17:23.067Z,50.908123
2023-03-13T01:18:23.049Z,50.908154
2023-03-13T01:19:23.075Z,50.908157
2023-03-13T01:20:23.040Z,50.908176
2023-03-13T01:21:23.055Z,50.908131
2023-03-13T01:22:23.024Z,50.908173
2023-03-13T01:23:23.017Z,50.908115
2023-03-13T01:24:23.045Z,50.908184
2023-03-13T01:25:23.001Z,50.908165
2023-03-13T01:26:22.997Z,50.908154
2023-03-13T01:27:22.986Z,50.908062
2023-03-13T01:28:23.982Z,50.908146
2023-03-13T01:29:22.994Z,50.908138
2023-03-13T01:30:22.974Z,50.908215
2023-03-13T01:31:23.107Z,50.908188
2023-03-13T01:32:22.980Z,50.908081
2023-03-13T01:33:22.940Z,50.908142
2023-03-13T01:34:22.968Z,50.908127
2023-03-13T01:35:22.975Z,50.908134
2023-03-13T01:36:22.925Z,50.908131
2023-03-13T01:37:22.912Z,50.907963
2023-03-13T01:38:22.905Z,50.908062
2023-03-13T01:39:22.930Z,50.908123
2023-03-13T01:40:22.897Z,50.908131
2023-03-13T01:41:22.885Z,50.908127
2023-03-13T01:42:22.877Z,50.908176
2023-03-13T01:43:27.200Z,50.908195
2023-03-13T01:44:23.885Z,50.908180
2023-03-13T01:45:22.855Z,50.908157
2023-03-13T01:46:22.877Z,50.908234
2023-03-13T01:47:22.837Z,50.908226
2023-03-13T01:48:22.827Z,50.908169
2023-03-13T01:49:22.850Z,50.908157
2023-03-13T01:50:22.833Z,50.908138
2023-03-13T01:51:22.814Z,50.908138
2023-03-13T01:52:22.807Z,50.908173
2023-03-13T01:53:22.786Z,50.908142
2023-03-13T01:54:22.817Z,50.908146
2023-03-13T01:55:22.773Z,50.908115
2023-03-13T01:56:22.765Z,50.908131
2023-03-13T01:57:22.756Z,50.908131
2023-03-13T01:58:22.748Z,50.908161
2023-03-13T01:59:22.772Z,50.908169
2023-03-13T02:00:22.737Z,50.908142
2023-03-13T02:01:22.759Z,50.908161
2023-03-13T02:02:22.750Z,50.908150
2023-03-13T02:03:22.704Z,50.908150
2023-03-13T02:04:22.732Z,50.908157
2023-03-13T02:05:22.698Z,50.908104
2023-03-13T02:06:22.685Z,50.908138
2023-03-13T02:07:22.684Z,50.908150
2023-03-13T02:08:22.668Z,50.908077
2023-03-13T02:09:22.685Z,50.908276
2023-03-13T02:10:22.657Z,50.908108
2023-03-13T02:11:22.659Z,50.908077
2023-03-13T02:12:22.644Z,50.908104
2023-03-13T02:13:22.630Z,50.908173
2023-03-13T02:14:22.645Z,50.908142
2023-03-13T02:15:22.619Z,50.908180
2023-03-13T02:16:22.619Z,50.908234
2023-03-13T02:17:22.598Z,50.908226
2023-03-13T02:18:22.605Z,50.908142
2023-03-13T02:19:22.606Z,50.908131
2023-03-13T02:20:22.581Z,50.908154
2023-03-13T02:21:22.567Z,50.908115
2023-03-13T02:22:22.563Z,50.908100
2023-03-13T02:23:22.554Z,50.908127
2023-03-13T02:24:22.582Z,50.908138
2023-03-13T02:25:22.539Z,50.908150
2023-03-13T02:26:22.530Z,50.908123
2023-03-13T02:27:22.532Z,50.908108
2023-03-13T02:28:22.512Z,50.908051
2023-03-13T02:29:22.532Z,50.908203
2023-03-13T02:30:22.501Z,50.908165
2023-03-13T02:31:22.524Z,50.908112
2023-03-13T02:32:22.517Z,50.908100
2023-03-13T02:33:22.479Z,50.908119
2023-03-13T02:34:22.468Z,50.908123
2023-03-13T02:35:22.509Z,50.908146
2023-03-13T02:36:22.448Z,50.908115
2023-03-13T02:37:22.441Z,50.908123
2023-03-13T02:38:22.459Z,50.908115
2023-03-13T02:39:22.433Z,50.908131
2023-03-13T02:40:22.442Z,50.908138
2023-03-13T02:41:22.415Z,50.908104
2023-03-13T02:42:22.414Z,50.908047
2023-03-13T02:43:22.396Z,50.908142
2023-03-13T02:44:22.388Z,50.908127
2023-03-13T02:45:22.405Z,50.908100
2023-03-13T02:46:22.410Z,50.908157
2023-03-13T02:47:22.396Z,50.908066
2023-03-13T02:48:22.371Z,50.908054
2023-03-13T02:49:22.349Z,50.908115
2023-03-13T02:50:22.367Z,50.908104
2023-03-13T02:51:22.333Z,50.908131
2023-03-13T02:52:22.332Z,50.908112
2023-03-13T02:53:22.321Z,50.908134
2023-03-13T02:54:22.316Z,50.908123
2023-03-13T02:55:22.377Z,50.908119
2023-03-13T02:56:22.302Z,50.908127
2023-03-13T02:57:22.287Z,50.908134
2023-03-13T02:58:22.282Z,50.908081
2023-03-13T02:59:22.282Z,50.908096
2023-03-13T03:00:22.301Z,50.908077
2023-03-13T03:01:22.265Z,50.908127
2023-03-13T03:02:22.251Z,50.908123
2023-03-13T03:03:22.251Z,50.908085
2023-03-13T03:04:22.381Z,50.908211
2023-03-13T03:05:22.314Z,50.908199
2023-03-13T03:06:22.233Z,50.908134
2023-03-13T03:07:22.239Z,50.908131
2023-03-13T03:08:22.208Z,50.908112
2023-03-13T03:09:22.208Z,50.908104
2023-03-13T03:10:22.234Z,50.908081
2023-03-13T03:11:22.193Z,50.908157
2023-03-13T03:12:22.178Z,50.908066
2023-03-13T03:13:22.172Z,50.908028
2023-03-13T03:14:22.167Z,50.908058
2023-03-13T03:15:22.165Z,50.908066
2023-03-13T03:16:22.203Z,50.908115
2023-03-13T03:17:22.137Z,50.908054
2023-03-13T03:18:22.129Z,50.908195
2023-03-13T03:19:22.108Z,50.908184
2023-03-13T03:20:22.126Z,50.908092
2023-03-13T03:21:22.095Z,50.908123
2023-03-13T03:22:22.083Z,50.908092
2023-03-13T03:23:22.077Z,50.908077
2023-03-13T03:24:22.080Z,50.908188
2023-03-13T03:25:22.087Z,50.908176
2023-03-13T03:26:22.051Z,50.908203
2023-03-13T03:27:22.045Z,50.908138
2023-03-13T03:28:22.043Z,50.908096
2023-03-13T03:29:22.029Z,50.908192
2023-03-13T03:30:22.049Z,50.908226
2023-03-13T03:31:22.069Z,50.908184
2023-03-13T03:32:22.046Z,50.908108
2023-03-13T03:33:22.001Z,50.908154
2023-03-13T03:34:21.991Z,50.908089
2023-03-13T03:35:22.013Z,50.908154
2023-03-13T03:36:21.971Z,50.908127
2023-03-13T03:37:21.956Z,50.908138
2023-03-13T03:38:22.973Z,50.908100
2023-03-13T03:39:21.957Z,50.908119
2023-03-13T03:40:21.972Z,50.908161
2023-03-13T03:41:21.929Z,50.908173
2023-03-13T03:42:21.951Z,50.908302
2023-03-13T03:43:21.920Z,50.908264
2023-03-13T03:44:21.907Z,50.908104
2023-03-13T03:45:21.904Z,50.908127
2023-03-13T03:46:21.950Z,50.908157
2023-03-13T03:47:21.913Z,50.908237
2023-03-13T03:48:21.879Z,50.908318
2023-03-13T03:49:21.878Z,50.908195
2023-03-13T03:50:21.863Z,50.908115
2023-03-13T03:51:21.884Z,50.908100
2023-03-13T03:52:21.851Z,50.908211
2023-03-13T03:53:21.843Z,50.908134
2023-03-13T03:54:21.844Z,50.908199
2023-03-13T03:55:21.828Z,50.908314
2023-03-13T03:56:21.848Z,50.908203
2023-03-13T03:57:21.810Z,50.908173
2023-03-13T03:58:21.805Z,50.908150
2023-03-13T03:59:21.788Z,50.908115
2023-03-13T04:00:21.791Z,50.908234
2023-03-13T04:01:21.816Z,50.908203
2023-03-13T04:02:21.849Z,50.908173
2023-03-13T04:03:21.815Z,50.908157
2023-03-13T04:04:21.759Z,50.908085
2023-03-13T04:05:21.755Z,50.908161
2023-03-13T04:06:21.775Z,50.908188
2023-03-13T04:07:21.738Z,50.908180
2023-03-13T04:08:21.728Z,50.908195
2023-03-13T04:09:21.726Z,50.908176
2023-03-13T04:10:21.718Z,50.908150
2023-03-13T04:11:21.740Z,50.908115
2023-03-13T04:12:21.701Z,50.908150
2023-03-13T04:13:21.721Z,50.908123
2023-03-13T04:14:21.682Z,50.908108
2023-03-13T04:15:21.682Z,50.908119
2023-03-13T04:16:21.719Z,50.908104
2023-03-13T04:17:21.658Z,50.908104
2023-03-13T04:18:21.658Z,50.908115
2023-03-13T04:19:21.646Z,50.908131
2023-03-13T04:20:21.634Z,50.908104
2023-03-13T04:21:21.662Z,50.908123
2023-03-13T04:22:21.623Z,50.908108
2023-03-13T04:23:21.609Z,50.908062
2023-03-13T04:24:21.605Z,50.908092
2023-03-13T04:25:21.606Z,50.908112
2023-03-13T04:26:21.622Z,50.908100
2023-03-13T04:27:21.581Z,50.908115
2023-03-13T04:28:21.571Z,50.908112
2023-03-13T04:29:21.568Z,50.908092
2023-03-13T04:30:21.560Z,50.908066
2023-03-13T04:31:21.610Z,50.908073
2023-03-13T04:32:21.608Z,50.908100
2023-03-13T04:33:21.535Z,50.908119
2023-03-13T04:34:21.524Z,50.908142
2023-03-13T04:35:21.598Z,50.908138
2023-03-13T04:36:21.595Z,50.908119
2023-03-13T04:37:21.508Z,50.908119
2023-03-13T04:38:21.503Z,50.908112
2023-03-13T04:39:21.525Z,50.908108
2023-03-13T04:40:22.482Z,50.908134
2023-03-13T04:41:21.503Z,50.908112
2023-03-13T04:42:21.470Z,50.908108
2023-03-13T04:43:21.461Z,50.908085
2023-03-13T04:44:21.449Z,50.908100
2023-03-13T04:45:21.447Z,50.908092
2023-03-13T04:46:21.512Z,50.908024
2023-03-13T04:47:21.449Z,50.908085
2023-03-13T04:48:21.423Z,50.908092
2023-03-13T04:49:21.416Z,50.908108
2023-03-13T04:50:21.415Z,50.908115
2023-03-13T04:51:21.422Z,50.908070
2023-03-13T04:52:21.391Z,50.908108
2023-03-13T04:53:21.411Z,50.908115
2023-03-13T04:54:21.377Z,50.908146
2023-03-13T04:55:21.371Z,50.908157
2023-03-13T04:56:24.717Z,50.908134
2023-03-13T04:57:22.348Z,50.908150
2023-03-13T04:58:21.345Z,50.908051
2023-03-13T04:59:21.346Z,50.908112
2023-03-13T05:00:21.324Z,50.908138
2023-03-13T05:01:21.466Z,50.908020
2023-03-13T05:02:21.307Z,50.908081
2023-03-13T05:03:21.303Z,50.908115
2023-03-13T05:04:21.291Z,50.908115
2023-03-13T05:05:21.366Z,50.908134
2023-03-13T05:06:21.265Z,50.908108
2023-03-13T05:07:22.301Z,50.908146
2023-03-13T05:08:21.268Z,50.908134
2023-03-13T05:09:21.265Z,50.908123
2023-03-13T05:10:21.249Z,50.908081
2023-03-13T05:11:21.244Z,50.908119
2023-03-13T05:12:21.260Z,50.908119
2023-03-13T05:13:21.227Z,50.908100
2023-03-13T05:14:21.226Z,50.908119
2023-03-13T05:15:21.209Z,50.908123
2023-03-13T05:16:21.230Z,50.908138
2023-03-13T05:17:21.215Z,50.908134
2023-03-13T05:18:21.191Z,50.908127
2023-03-13T05:19:21.187Z,50.908123
2023-03-13T05:20:21.171Z,50.908104
2023-03-13T05:21:21.160Z,50.908131
2023-03-13T05:22:21.182Z,50.908096
2023-03-13T05:23:21.153Z,50.908115
2023-03-13T05:24:21.139Z,50.908154
2023-03-13T05:25:21.140Z,50.908146
2023-03-13T05:26:21.125Z,50.908131
2023-03-13T05:27:21.138Z,50.908134
2023-03-13T05:28:21.103Z,50.908131
2023-03-13T05:29:21.098Z,50.908146
2023-03-13T05:30:21.096Z,50.908127
2023-03-13T05:31:21.125Z,50.908138
2023-03-13T05:32:21.111Z,50.908138
2023-03-13T05:33:21.076Z,50.908119
2023-03-13T05:34:21.060Z,50.908138
2023-03-13T05:35:21.077Z,50.908100
2023-03-13T05:36:21.045Z,50.908127
2023-03-13T05:37:21.065Z,50.908165
2023-03-13T05:38:21.033Z,50.908096
2023-03-13T05:39:21.027Z,50.908127
2023-03-13T05:40:21.019Z,50.908142
2023-03-13T05:41:21.015Z,50.908131
2023-03-13T05:42:21.018Z,50.908131
2023-03-13T05:43:21.992Z,50.908134
2023-03-13T05:44:20.989Z,50.908127
2023-03-13T05:45:20.984Z,50.908134
2023-03-13T05:46:20.992Z,50.908150
2023-03-13T05:47:21.001Z,50.908127
2023-03-13T05:48:20.963Z,50.908077
2023-03-13T05:49:20.947Z,50.908112
2023-03-13T05:50:20.938Z,50.908108
2023-03-13T05:51:20.938Z,50.908134
2023-03-13T05:52:20.946Z,50.908127
2023-03-13T05:53:20.918Z,50.908119
2023-03-13T05:54:20.914Z,50.908115
2023-03-13T05:55:20.903Z,50.908123
2023-03-13T05:56:20.887Z,50.908142
2023-03-13T05:57:20.900Z,50.908096
2023-03-13T05:58:20.863Z,50.908100
2023-03-13T05:59:20.866Z,50.908165
2023-03-13T06:00:20.863Z,50.908150
2023-03-13T06:01:20.846Z,50.908085
2023-03-13T06:02:20.867Z,50.908123
2023-03-13T06:03:20.903Z,50.908100
2023-03-13T06:04:20.974Z,50.908089
2023-03-13T06:05:20.830Z,50.908073
2023-03-13T06:06:20.808Z,50.908070
2023-03-13T06:07:20.822Z,50.908066
2023-03-13T06:08:21.820Z,50.908089
2023-03-13T06:09:21.789Z,50.908039
2023-03-13T06:10:20.774Z,50.908066
2023-03-13T06:11:20.763Z,50.908089
2023-03-13T06:12:20.797Z,50.908119
2023-03-13T06:13:20.743Z,50.908096
2023-03-13T06:14:20.737Z,50.908070
2023-03-13T06:15:20.733Z,50.908077
2023-03-13T06:16:20.789Z,50.908119
2023-03-13T06:17:20.760Z,50.908112
2023-03-13T06:18:20.717Z,50.908016
2023-03-13T06:19:20.696Z,50.908062
2023-03-13T06:20:20.693Z,50.908085
2023-03-13T06:21:20.689Z,50.908024
2023-03-13T06:22:20.699Z,50.908112
2023-03-13T06:23:20.667Z,50.908066
2023-03-13T06:24:20.662Z,50.908112
2023-03-13T06:25:20.659Z,50.908077
2023-03-13T06:26:20.644Z,50.907856
2023-03-13T06:27:20.656Z,50.908112
2023-03-13T06:28:20.642Z,50.908051
2023-03-13T06:29:20.623Z,50.908070
2023-03-13T06:30:20.622Z,50.908031
2023-03-13T06:31:20.643Z,50.907970
2023-03-13T06:32:20.790Z,50.908020
2023-03-13T06:33:20.671Z,50.908142
2023-03-13T06:34:20.586Z,50.908287
2023-03-13T06:35:20.586Z,50.908146
2023-03-13T06:36:20.602Z,50.907997
2023-03-13T06:37:20.590Z,50.907822
2023-03-13T06:38:20.550Z,50.907894
2023-03-13T06:39:20.554Z,50.908192
2023-03-13T06:40:20.541Z,50.908070
2023-03-13T06:41:20.541Z,50.908016
2023-03-13T06:42:20.548Z,50.907940
2023-03-13T06:43:20.512Z,50.907974
2023-03-13T06:44:20.511Z,50.908161
2023-03-13T06:45:20.511Z,50.908100
2023-03-13T06:46:20.537Z,50.908142
2023-03-13T06:47:20.541Z,50.908207
2023-03-13T06:48:20.470Z,50.908184
2023-03-13T06:49:20.465Z,50.908089
2023-03-13T06:50:20.456Z,50.908131
2023-03-13T06:51:20.449Z,50.908176
2023-03-13T06:52:22.073Z,50.908138
2023-03-13T06:53:20.469Z,50.907932
2023-03-13T06:54:21.429Z,50.908096
2023-03-13T06:55:20.412Z,50.908127
2023-03-13T06:56:20.411Z,50.908073
2023-03-13T06:57:20.424Z,50.908058
2023-03-13T06:58:31.611Z,50.908104
2023-03-13T06:59:22.382Z,50.908051
2023-03-13T07:00:20.370Z,50.908085
2023-03-13T07:01:20.421Z,50.908253
2023-03-13T07:02:20.389Z,50.908192
2023-03-13T07:03:21.367Z,50.908318
2023-03-13T07:04:20.384Z,50.908310
2023-03-13T07:05:20.350Z,50.908440
2023-03-13T07:06:20.356Z,50.908150
2023-03-13T07:07:31.250Z,50.908154
2023-03-13T07:08:22.348Z,50.908138
2023-03-13T07:09:20.313Z,50.908218
2023-03-13T07:10:20.320Z,50.908154
2023-03-13T07:11:20.292Z,50.908176
2023-03-13T07:12:20.284Z,50.908184
2023-03-13T07:13:20.302Z,50.908150
2023-03-13T07:14:20.281Z,50.908127
2023-03-13T07:15:20.259Z,50.908112
2023-03-13T07:16:20.324Z,50.908134
2023-03-13T07:17:20.259Z,50.908157
2023-03-13T07:18:20.271Z,50.908146
2023-03-13T07:19:20.237Z,50.908157
2023-03-13T07:20:20.298Z,50.908157
2023-03-13T07:21:21.225Z,50.908127
2023-03-13T07:22:20.218Z,50.908165
2023-03-13T07:23:20.239Z,50.908138
2023-03-13T07:24:20.231Z,50.908112
2023-03-13T07:25:20.200Z,50.908234
2023-03-13T07:26:20.269Z,50.908157
2023-03-13T07:27:20.226Z,50.908169
2023-03-13T07:28:20.191Z,50.908154
2023-03-13T07:29:20.166Z,50.908127
2023-03-13T07:30:20.148Z,50.908104
2023-03-13T07:31:20.232Z,50.908127
2023-03-13T07:32:20.178Z,50.908119
2023-03-13T07:33:20.152Z,50.908127
2023-03-13T07:34:20.142Z,50.908134
2023-03-13T07:35:20.110Z,50.908134
2023-03-13T07:36:20.143Z,50.908081
2023-03-13T07:37:20.094Z,50.908112
2023-03-13T07:38:20.117Z,50.908146
2023-03-13T07:39:20.109Z,50.908169
2023-03-13T07:40:20.092Z,50.908142
2023-03-13T07:41:20.105Z,50.908119
2023-03-13T07:42:20.076Z,50.908123
2023-03-13T07:43:20.067Z,50.908131
2023-03-13T07:44:20.041Z,50.908150
2023-03-13T07:45:20.052Z,50.908142
2023-03-13T07:46:20.271Z,50.908131
2023-03-13T07:47:20.028Z,50.908131
2023-03-13T07:48:20.034Z,50.908108
2023-03-13T07:49:20.012Z,50.908115
2023-03-13T07:50:20.045Z,50.908138
2023-03-13T07:51:25.299Z,50.908123
2023-03-13T07:52:20.972Z,50.908131
2023-03-13T07:53:20.104Z,50.908131
2023-03-13T07:54:19.957Z,50.908131
2023-03-13T07:55:19.983Z,50.908127
2023-03-13T07:56:19.936Z,50.908123
2023-03-13T07:57:19.943Z,50.908119
2023-03-13T07:58:19.956Z,50.908096
2023-03-13T07:59:19.915Z,50.908112
2023-03-13T08:00:19.919Z,50.908119
2023-03-13T08:01:19.912Z,50.908154
2023-03-13T08:02:19.930Z,50.908134
2023-03-13T08:03:19.979Z,50.908127
2023-03-13T08:04:19.883Z,50.908108
2023-03-13T08:05:19.872Z,50.908119
2023-03-13T08:06:19.863Z,50.908073
2023-03-13T08:07:19.876Z,50.908104
2023-03-13T08:08:19.873Z,50.908085
2023-03-13T08:09:19.851Z,50.908112
2023-03-13T08:10:19.833Z,50.908161
2023-03-13T08:11:19.830Z,50.908112
2023-03-13T08:12:19.822Z,50.908142
2023-03-13T08:13:19.840Z,50.908115
2023-03-13T08:14:19.801Z,50.908150
2023-03-13T08:15:19.797Z,50.908089
2023-03-13T08:16:19.831Z,50.908188
2023-03-13T08:17:19.783Z,50.908108
2023-03-13T08:18:19.802Z,50.908081
2023-03-13T08:19:19.758Z,50.908134
2023-03-13T08:20:19.752Z,50.908108
2023-03-13T08:21:19.744Z,50.908127
2023-03-13T08:22:19.737Z,50.908115
2023-03-13T08:23:19.756Z,50.908169
2023-03-13T08:24:19.718Z,50.908165
2023-03-13T08:25:19.706Z,50.908161
2023-03-13T08:26:19.715Z,50.908165
2023-03-13T08:27:19.693Z,50.908161
2023-03-13T08:28:19.719Z,50.908127
2023-03-13T08:29:19.681Z,50.908157
2023-03-13T08:30:19.684Z,50.908192
2023-03-13T08:31:19.701Z,50.908165
2023-03-13T08:32:19.712Z,50.908123
2023-03-13T08:33:19.672Z,50.908131
2023-03-13T08:34:19.656Z,50.908169
2023-03-13T08:35:19.639Z,50.908165
2023-03-13T08:36:19.636Z,50.908154
2023-03-13T08:37:19.616Z,50.908131
2023-03-13T08:38:19.636Z,50.908157
2023-03-13T08:39:19.607Z,50.908211
2023-03-13T08:40:19.588Z,50.908203
2023-03-13T08:41:19.611Z,50.908222
2023-03-13T08:42:19.604Z,50.908173
2023-03-13T08:43:19.609Z,50.908146
2023-03-13T08:44:19.599Z,50.908203
2023-03-13T08:45:19.582Z,50.908173
2023-03-13T08:46:19.895Z,50.908165
2023-03-13T08:47:20.561Z,50.908157
2023-03-13T08:48:19.564Z,50.908207
2023-03-13T08:49:19.525Z,50.908218
2023-03-13T08:50:19.519Z,50.908203
2023-03-13T08:51:19.514Z,50.908207
2023-03-13T08:52:19.526Z,50.908184
2023-03-13T08:53:19.523Z,50.908184
2023-03-13T08:54:19.498Z,50.908146
2023-03-13T08:55:19.479Z,50.908176
2023-03-13T08:56:19.473Z,50.908184
2023-03-13T08:57:19.477Z,50.908188
2023-03-13T08:58:19.486Z,50.908203
2023-03-13T08:59:19.458Z,50.908199
2023-03-13T09:00:19.446Z,50.908241
2023-03-13T09:01:19.476Z,50.908260
2023-03-13T09:02:19.446Z,50.908188
2023-03-13T09:03:19.490Z,50.908218
2023-03-13T09:04:19.420Z,50.908226
2023-03-13T09:05:19.409Z,50.908180
2023-03-13T09:06:19.416Z,50.908188
2023-03-13T09:07:19.403Z,50.908176
2023-03-13T09:08:19.412Z,50.908173
2023-03-13T09:09:19.372Z,50.908157
2023-03-13T09:10:19.361Z,50.908169
2023-03-13T09:11:19.367Z,50.908157
2023-03-13T09:12:30.352Z,50.908146
2023-03-13T09:13:21.381Z,50.908119
2023-03-13T09:14:19.343Z,50.908085
2023-03-13T09:15:19.323Z,50.908108
2023-03-13T09:16:19.374Z,50.908134
2023-03-13T09:17:19.316Z,50.908192
2023-03-13T09:18:19.361Z,50.908173
2023-03-13T09:19:19.292Z,50.908184
2023-03-13T09:20:19.287Z,50.908203
2023-03-13T09:21:19.290Z,50.908173
2023-03-13T09:22:19.268Z,50.908142
2023-03-13T09:23:19.287Z,50.908070
2023-03-13T09:24:19.251Z,50.908134
2023-03-13T09:25:19.246Z,50.908104
2023-03-13T09:26:20.982Z,50.908138
2023-03-13T09:27:19.231Z,50.908127
2023-03-13T09:28:19.258Z,50.908154
2023-03-13T09:29:19.214Z,50.908123
2023-03-13T09:30:19.214Z,50.908146
2023-03-13T09:31:19.286Z,50.908154
2023-03-13T09:32:19.227Z,50.908146
2023-03-13T09:33:19.229Z,50.908089
2023-03-13T09:34:19.176Z,50.908134
2023-03-13T09:35:19.174Z,50.908104
2023-03-13T09:36:21.785Z,50.908104
2023-03-13T09:37:20.166Z,50.908115
2023-03-13T09:38:19.190Z,50.908127
2023-03-13T09:39:19.131Z,50.908127
2023-03-13T09:40:19.137Z,50.908146
2023-03-13T09:41:19.123Z,50.908123
2023-03-13T09:42:19.116Z,50.908112
2023-03-13T09:43:19.164Z,50.908150
2023-03-13T09:44:19.096Z,50.908150
2023-03-13T09:45:19.117Z,50.908142
2023-03-13T09:46:19.118Z,50.908108
2023-03-13T09:47:19.091Z,50.908123
2023-03-13T09:48:19.105Z,50.908112
2023-03-13T09:49:19.065Z,50.908134
2023-03-13T09:50:19.082Z,50.908127
2023-03-13T09:51:19.037Z,50.908165
2023-03-13T09:52:19.045Z,50.908154
2023-03-13T09:53:19.020Z,50.908150
2023-03-13T09:54:19.038Z,50.908131
2023-03-13T09:55:19.009Z,50.908127
2023-03-13T09:56:19.007Z,50.908123
2023-03-13T09:57:19.008Z,50.908112
2023-03-13T09:58:18.998Z,50.908134
2023-03-13T09:59:19.014Z,50.908131
2023-03-13T10:00:19.002Z,50.908127
2023-03-13T10:01:18.994Z,50.908146
2023-03-13T10:02:18.964Z,50.908119
2023-03-13T10:03:18.952Z,50.908112
2023-03-13T10:04:18.999Z,50.908119
2023-03-13T10:05:18.925Z,50.908131
2023-03-13T10:06:18.917Z,50.908142
2023-03-13T10:07:18.923Z,50.908146
2023-03-13T10:08:18.902Z,50.908115
2023-03-13T10:09:18.928Z,50.908154
2023-03-13T10:10:18.893Z,50.908161
2023-03-13T10:11:18.888Z,50.908138
2023-03-13T10:12:18.894Z,50.908127
2023-03-13T10:13:18.874Z,50.908154
2023-03-13T10:14:18.898Z,50.908115
2023-03-13T10:15:18.853Z,50.908092
2023-03-13T10:16:19.518Z,50.908115
2023-03-13T10:17:19.846Z,50.908104
2023-03-13T10:18:18.847Z,50.908112
2023-03-13T10:19:18.857Z,50.908131
2023-03-13T10:20:18.847Z,50.908112
2023-03-13T10:21:18.796Z,50.908134
2023-03-13T10:22:19.804Z,50.908157
2023-03-13T10:23:18.788Z,50.908134
2023-03-13T10:24:18.801Z,50.908108
2023-03-13T10:25:18.767Z,50.908058
2023-03-13T10:26:18.767Z,50.908085
2023-03-13T10:27:18.801Z,50.908073
2023-03-13T10:28:18.758Z,50.908108
2023-03-13T10:29:18.774Z,50.908066
2023-03-13T10:30:18.753Z,50.908089
2023-03-13T10:31:18.839Z,50.908112
2023-03-13T10:32:18.756Z,50.908085
2023-03-13T10:33:18.706Z,50.908092
2023-03-13T10:34:18.741Z,50.908123
2023-03-13T10:35:18.699Z,50.908081
2023-03-13T10:36:18.700Z,50.908089
2023-03-13T10:37:18.679Z,50.908112
2023-03-13T10:38:18.670Z,50.908085
2023-03-13T10:39:18.698Z,50.908089
2023-03-13T10:40:18.655Z,50.908100
2023-03-13T10:41:18.655Z,50.908104
2023-03-13T10:42:18.638Z,50.908112
2023-03-13T10:43:20.149Z,50.908081
2023-03-13T10:44:18.650Z,50.908100
2023-03-13T10:45:18.616Z,50.908077
2023-03-13T10:46:18.633Z,50.908054
2023-03-13T10:47:18.597Z,50.908077
2023-03-13T10:48:18.596Z,50.908066
2023-03-13T10:49:18.632Z,50.908066
2023-03-13T10:50:18.627Z,50.908092
2023-03-13T10:51:18.574Z,50.908100
2023-03-13T10:52:18.566Z,50.908085
2023-03-13T10:53:18.577Z,50.908085
2023-03-13T10:54:18.567Z,50.908089
2023-03-13T10:55:18.542Z,50.908085
2023-03-13T10:56:18.531Z,50.908062
2023-03-13T10:57:18.517Z,50.908054
2023-03-13T10:58:18.518Z,50.908115
2023-03-13T10:59:18.539Z,50.908127
2023-03-13T11:00:18.532Z,50.908108
2023-03-13T11:01:18.504Z,50.908092
2023-03-13T11:02:18.534Z,50.908089
2023-03-13T11:03:19.593Z,50.908127
2023-03-13T11:04:18.512Z,50.908112
2023-03-13T11:05:18.462Z,50.908123
2023-03-13T11:06:18.462Z,50.908100
2023-03-13T11:07:18.447Z,50.908123
2023-03-13T11:08:18.495Z,50.908100
2023-03-13T11:09:18.458Z,50.908108
2023-03-13T11:10:18.491Z,50.908051
2023-03-13T11:11:18.424Z,50.908150
2023-03-13T11:12:18.413Z,50.908154
2023-03-13T11:13:30.660Z,50.908138
2023-03-13T11:14:20.421Z,50.908142
2023-03-13T11:15:18.412Z,50.908161
2023-03-13T11:16:18.427Z,50.908123
2023-03-13T11:17:18.359Z,50.908112
2023-03-13T11:18:19.357Z,50.908092
2023-03-13T11:19:18.376Z,50.908184
2023-03-13T11:20:18.505Z,50.908127
2023-03-13T11:21:18.713Z,50.908096
2023-03-13T11:22:19.374Z,50.908138
2023-03-13T11:23:18.326Z,50.908165
2023-03-13T11:24:18.335Z,50.908096